createdAt,value
2018-09-25T00:02:23.510Z,10.50
2018-09-25T00:04:58.555Z,10.50
2018-09-25T00:07:33.208Z,10.50
2018-09-25T00:10:08.091Z,10.50
2018-09-25T00:12:43.627Z,10.50
2018-09-25T00:15:18.552Z,10.50
2018-09-25T00:17:53.450Z,10.50
2018-09-25T00:20:28.236Z,10.50
2018-09-25T00:23:02.997Z,10.60
2018-09-25T00:25:37.952Z,10.60
2018-09-25T00:28:12.782Z,10.60
2018-09-25T00:30:47.474Z,10.70
2018-09-25T00:33:22.402Z,10.70
2018-09-25T00:35:57.256Z,10.70
2018-09-25T00:38:32.060Z,10.60
2018-09-25T00:41:06.848Z,10.60
2018-09-25T00:43:41.740Z,10.60
2018-09-25T00:46:16.586Z,10.50
2018-09-25T00:48:51.476Z,10.50
2018-09-25T00:51:26.268Z,10.50
2018-09-25T00:54:01.458Z,10.40
2018-09-25T00:56:36.299Z,10.30
2018-09-25T00:59:11.301Z,10.30
2018-09-25T01:01:46.114Z,10.30
2018-09-25T01:04:20.781Z,10.30
2018-09-25T01:06:55.598Z,10.20
2018-09-25T01:09:30.600Z,10.20
2018-09-25T01:12:05.431Z,10.20
2018-09-25T01:14:40.106Z,10.30
2018-09-25T01:17:15.010Z,10.30
2018-09-25T01:19:50.023Z,10.20
2018-09-25T01:22:24.787Z,10.20
2018-09-25T01:24:59.646Z,10.20
2018-09-25T01:27:34.595Z,10.10
2018-09-25T01:30:09.578Z,10.10
2018-09-25T01:32:44.299Z,10.00
2018-09-25T01:35:20.237Z,10.10
2018-09-25T01:37:55.210Z,10.10
2018-09-25T01:40:29.975Z,9.90
2018-09-25T01:43:04.898Z,10.10
2018-09-25T01:45:39.692Z,10.10
2018-09-25T01:48:15.727Z,10.10
2018-09-25T01:50:50.479Z,10.20
2018-09-25T01:53:25.422Z,10.10
2018-09-25T01:56:00.485Z,10.10
2018-09-25T01:58:35.299Z,10.00
2018-09-25T02:01:10.258Z,9.80
2018-09-25T02:03:45.179Z,9.80
2018-09-25T02:06:20.154Z,9.70
2018-09-25T02:08:55.047Z,9.60
2018-09-25T02:11:29.789Z,9.60
2018-09-25T02:14:04.659Z,9.50
2018-09-25T02:16:39.609Z,9.50
2018-09-25T02:19:14.470Z,9.60
2018-09-25T02:21:49.243Z,9.60
2018-09-25T02:24:23.971Z,9.60
2018-09-25T02:26:58.972Z,9.60
2018-09-25T02:29:33.778Z,9.60
2018-09-25T02:32:08.706Z,9.70
2018-09-25T02:34:43.642Z,9.70
2018-09-25T02:37:18.586Z,9.70
2018-09-25T02:39:53.442Z,9.60
2018-09-25T02:42:28.239Z,9.70
2018-09-25T02:45:03.238Z,9.80
2018-09-25T02:47:38.199Z,9.70
2018-09-25T02:50:13.319Z,9.80
2018-09-25T02:52:48.304Z,9.80
2018-09-25T02:55:23.186Z,9.80
2018-09-25T02:57:57.989Z,9.80
2018-09-25T03:00:32.843Z,9.90
2018-09-25T03:03:07.534Z,9.80
2018-09-25T03:05:42.223Z,9.80
2018-09-25T03:08:17.228Z,9.80
2018-09-25T03:10:52.058Z,9.70
2018-09-25T03:13:27.888Z,9.70
2018-09-25T03:16:02.794Z,9.80
2018-09-25T03:18:37.907Z,9.80
2018-09-25T03:21:12.708Z,9.80
2018-09-25T03:23:50.607Z,9.60
2018-09-25T03:26:25.458Z,9.50
2018-09-25T03:29:00.231Z,9.40
2018-09-25T03:31:34.951Z,9.40
2018-09-25T03:34:09.902Z,9.40
2018-09-25T03:36:44.731Z,9.50
2018-09-25T03:39:19.661Z,9.50
2018-09-25T03:41:54.614Z,9.40
2018-09-25T03:44:29.508Z,9.30
2018-09-25T03:47:04.482Z,9.30
2018-09-25T03:49:39.513Z,9.30
2018-09-25T03:52:14.699Z,9.30
2018-09-25T03:54:49.455Z,9.30
2018-09-25T03:57:24.430Z,9.20
2018-09-25T03:59:59.077Z,9.20
2018-09-25T04:02:35.560Z,9.20
2018-09-25T04:05:10.511Z,9.10
2018-09-25T04:07:45.346Z,9.10
2018-09-25T04:10:20.144Z,9.10
2018-09-25T04:12:55.276Z,9.10
2018-09-25T04:15:30.141Z,9.00
2018-09-25T04:18:04.951Z,9.00
2018-09-25T04:20:39.926Z,9.00
2018-09-25T04:23:14.674Z,9.00
2018-09-25T04:25:49.578Z,9.10
2018-09-25T04:28:24.495Z,9.00
2018-09-25T04:30:59.281Z,8.90
2018-09-25T04:33:34.266Z,8.80
2018-09-25T04:36:09.039Z,8.70
2018-09-25T04:38:44.015Z,8.60
2018-09-25T04:41:18.893Z,8.60
2018-09-25T04:43:53.619Z,8.60
2018-09-25T04:46:28.623Z,8.60
2018-09-25T04:49:03.723Z,8.60
2018-09-25T04:51:38.354Z,8.70
2018-09-25T04:54:13.326Z,8.70
2018-09-25T04:56:48.096Z,8.60
2018-09-25T04:59:22.785Z,8.50
2018-09-25T05:01:57.637Z,8.40
2018-09-25T05:04:32.495Z,8.40
2018-09-25T05:07:07.526Z,8.40
2018-09-25T05:09:42.413Z,8.40
2018-09-25T05:12:17.331Z,8.40
2018-09-25T05:14:51.943Z,8.50
2018-09-25T05:17:26.940Z,8.50
2018-09-25T05:20:02.884Z,8.50
2018-09-25T05:22:38.006Z,8.40
2018-09-25T05:25:13.051Z,8.40
2018-09-25T05:27:47.850Z,8.40
2018-09-25T05:30:23.020Z,8.40
2018-09-25T05:32:57.770Z,8.50
2018-09-25T05:35:32.790Z,8.50
2018-09-25T05:38:07.772Z,8.50
2018-09-25T05:40:42.607Z,8.40
2018-09-25T05:43:18.346Z,8.30
2018-09-25T05:45:53.176Z,8.30
2018-09-25T05:48:28.105Z,8.30
2018-09-25T05:51:02.900Z,8.40
2018-09-25T05:53:37.883Z,8.50
2018-09-25T05:56:12.870Z,8.70
2018-09-25T05:58:47.858Z,8.70
2018-09-25T06:01:22.654Z,8.70
2018-09-25T06:03:57.391Z,8.80
2018-09-25T06:06:32.233Z,8.70
2018-09-25T06:09:07.099Z,8.70
2018-09-25T06:11:41.930Z,8.70
2018-09-25T06:14:16.766Z,8.80
2018-09-25T06:16:51.584Z,8.80
2018-09-25T06:19:26.446Z,8.80
2018-09-25T06:22:01.188Z,8.90
2018-09-25T06:24:36.150Z,9.00
2018-09-25T06:27:11.160Z,9.00
2018-09-25T06:29:46.168Z,9.10
2018-09-25T06:32:21.056Z,9.10
2018-09-25T06:34:55.797Z,9.10
2018-09-25T06:37:31.085Z,9.20
2018-09-25T06:40:06.066Z,9.20
2018-09-25T06:42:40.856Z,9.10
2018-09-25T06:45:15.774Z,9.10
2018-09-25T06:47:50.767Z,9.20
2018-09-25T06:50:25.663Z,9.30
2018-09-25T06:53:00.692Z,9.30
2018-09-25T06:55:35.465Z,9.30
2018-09-25T06:58:10.377Z,9.40
2018-09-25T07:00:45.222Z,9.40
2018-09-25T07:03:20.098Z,9.40
2018-09-25T07:05:55.060Z,9.40
2018-09-25T07:08:30.037Z,9.40
2018-09-25T07:11:04.991Z,9.50
2018-09-25T07:13:39.710Z,9.60
2018-09-25T07:16:14.606Z,9.60
2018-09-25T07:18:49.398Z,9.70
2018-09-25T07:21:24.172Z,9.80
2018-09-25T07:23:59.004Z,9.80
2018-09-25T07:26:33.803Z,9.90
2018-09-25T07:29:08.657Z,9.90
2018-09-25T07:31:43.686Z,10.00
2018-09-25T07:34:18.511Z,10.00
2018-09-25T07:36:53.359Z,10.00
2018-09-25T07:39:28.347Z,10.10
2018-09-25T07:42:03.283Z,10.10
2018-09-25T07:44:38.143Z,10.20
2018-09-25T07:47:12.890Z,10.30
2018-09-25T07:49:47.728Z,10.30
2018-09-25T07:52:22.566Z,10.40
2018-09-25T07:54:57.463Z,10.50
2018-09-25T07:57:32.159Z,10.50
2018-09-25T08:00:06.943Z,10.60
2018-09-25T08:02:41.683Z,10.60
2018-09-25T08:05:16.740Z,10.60
2018-09-25T08:07:51.390Z,10.70
2018-09-25T08:10:26.197Z,10.80
2018-09-25T08:13:00.964Z,10.80
2018-09-25T08:15:36.157Z,10.80
2018-09-25T08:18:11.469Z,10.90
2018-09-25T08:20:46.295Z,10.90
2018-09-25T08:23:21.148Z,10.90
2018-09-25T08:25:55.979Z,10.90
2018-09-25T08:28:31.462Z,10.90
2018-09-25T08:31:06.973Z,10.90
2018-09-25T08:33:42.218Z,11.00
2018-09-25T08:36:17.045Z,11.10
2018-09-25T08:38:51.921Z,11.10
2018-09-25T08:41:26.693Z,11.10
2018-09-25T08:44:01.254Z,11.10
2018-09-25T08:46:36.651Z,11.10
2018-09-25T08:49:11.738Z,11.20
2018-09-25T08:51:46.828Z,11.20
2018-09-25T08:54:21.951Z,11.20
2018-09-25T08:56:57.271Z,11.20
2018-09-25T08:59:32.091Z,11.30
2018-09-25T09:02:07.042Z,11.30
2018-09-25T09:04:41.922Z,11.40
2018-09-25T09:07:16.673Z,11.40
2018-09-25T09:09:51.419Z,11.40
2018-09-25T09:12:27.058Z,11.50
2018-09-25T09:15:02.128Z,11.60
2018-09-25T09:17:37.185Z,11.60
2018-09-25T09:20:12.265Z,11.60
2018-09-25T09:22:48.459Z,11.60
2018-09-25T09:25:23.291Z,11.60
2018-09-25T09:27:58.028Z,11.70
2018-09-25T09:30:32.806Z,11.80
2018-09-25T09:33:07.533Z,11.90
2018-09-25T09:35:42.308Z,11.90
2018-09-25T09:38:17.220Z,11.90
2018-09-25T09:40:52.121Z,11.90
2018-09-25T09:43:26.905Z,11.90
2018-09-25T09:46:01.896Z,11.90
2018-09-25T09:48:36.651Z,11.90
2018-09-25T09:51:11.873Z,12.00
2018-09-25T09:53:46.801Z,12.10
2018-09-25T09:56:21.762Z,12.00
2018-09-25T09:58:56.599Z,12.10
2018-09-25T10:01:31.399Z,12.10
2018-09-25T10:04:06.226Z,12.20
2018-09-25T10:06:41.249Z,12.20
2018-09-25T10:09:16.328Z,12.20
2018-09-25T10:11:51.200Z,12.20
2018-09-25T10:14:25.993Z,12.10
2018-09-25T10:17:00.839Z,12.10
2018-09-25T10:19:35.592Z,12.10
2018-09-25T10:22:10.491Z,12.20
2018-09-25T10:24:45.261Z,12.20
2018-09-25T10:27:20.299Z,12.20
2018-09-25T10:29:55.106Z,12.10
2018-09-25T10:32:29.983Z,12.10
2018-09-25T10:35:04.655Z,12.20
2018-09-25T10:37:39.666Z,12.20
2018-09-25T10:40:14.718Z,12.20
2018-09-25T10:42:49.534Z,12.30
2018-09-25T10:45:24.516Z,12.30
2018-09-25T10:47:59.338Z,12.40
2018-09-25T10:50:34.052Z,12.40
2018-09-25T10:53:08.870Z,12.50
2018-09-25T10:55:43.742Z,12.60
2018-09-25T10:58:18.560Z,12.60
2018-09-25T11:00:53.538Z,12.50
2018-09-25T11:03:28.556Z,12.50
2018-09-25T11:06:03.319Z,12.50
2018-09-25T11:08:37.914Z,12.50
2018-09-25T11:11:12.772Z,12.50
2018-09-25T11:13:47.647Z,12.50
2018-09-25T11:16:22.454Z,12.60
2018-09-25T11:18:57.491Z,12.50
2018-09-25T11:21:32.653Z,12.50
2018-09-25T11:24:07.482Z,12.60
2018-09-25T11:26:42.193Z,12.70
2018-09-25T11:29:16.921Z,12.70
2018-09-25T11:31:53.033Z,12.80
2018-09-25T11:34:27.826Z,12.80
2018-09-25T11:37:02.530Z,12.90
2018-09-25T11:39:37.358Z,12.80
2018-09-25T11:42:12.314Z,12.70
2018-09-25T11:44:47.133Z,12.70
2018-09-25T11:47:22.099Z,12.70
2018-09-25T11:49:57.168Z,12.70
2018-09-25T11:52:32.214Z,12.70
2018-09-25T11:55:07.215Z,12.70
2018-09-25T11:57:41.966Z,12.70
2018-09-25T12:00:16.904Z,12.70
2018-09-25T12:02:51.704Z,12.80
2018-09-25T12:05:26.965Z,12.80
2018-09-25T12:08:01.858Z,12.80
2018-09-25T12:10:37.139Z,12.80
2018-09-25T12:13:12.435Z,12.90
2018-09-25T12:15:47.795Z,12.90
2018-09-25T12:18:23.122Z,12.90
2018-09-25T12:20:58.215Z,12.90
2018-09-25T12:23:33.155Z,12.90
2018-09-25T12:26:08.200Z,12.90
2018-09-25T12:28:43.323Z,12.90
2018-09-25T12:31:18.238Z,12.90
2018-09-25T12:33:53.444Z,13.00
2018-09-25T12:36:28.748Z,13.00
2018-09-25T12:39:04.425Z,13.00
2018-09-25T12:41:39.444Z,13.00
2018-09-25T12:44:14.548Z,13.00
2018-09-25T12:46:49.759Z,13.00
2018-09-25T12:49:24.474Z,13.10
2018-09-25T12:51:59.302Z,13.20
2018-09-25T12:54:34.128Z,13.20
2018-09-25T12:57:08.987Z,13.30
2018-09-25T12:59:43.989Z,13.20
2018-09-25T13:02:19.075Z,13.30
2018-09-25T13:04:54.172Z,13.20
2018-09-25T13:07:29.006Z,13.30
2018-09-25T13:10:03.804Z,13.30
2018-09-25T13:12:38.688Z,13.20
2018-09-25T13:15:13.682Z,13.30
2018-09-25T13:17:48.671Z,13.30
2018-09-25T13:20:23.616Z,13.20
2018-09-25T13:22:58.411Z,13.30
2018-09-25T13:25:33.221Z,13.40
2018-09-25T13:28:08.048Z,13.40
2018-09-25T13:30:42.883Z,13.40
2018-09-25T13:33:17.690Z,13.30
2018-09-25T13:35:52.524Z,13.30
2018-09-25T13:38:27.303Z,13.30
2018-09-25T13:41:01.978Z,13.30
2018-09-25T13:43:36.901Z,13.30
2018-09-25T13:46:11.832Z,13.20
2018-09-25T13:48:46.715Z,13.20
2018-09-25T13:51:21.720Z,13.20
2018-09-25T13:53:56.532Z,13.20
2018-09-25T13:56:31.331Z,13.10
2018-09-25T13:59:06.295Z,13.10
2018-09-25T14:01:41.106Z,13.10
2018-09-25T14:04:23.195Z,13.10
2018-09-25T14:06:57.891Z,13.10
2018-09-25T14:09:34.020Z,13.20
2018-09-25T14:12:11.518Z,13.30
2018-09-25T14:14:46.394Z,13.30
2018-09-25T14:17:21.183Z,13.20
2018-09-25T14:19:55.987Z,13.30
2018-09-25T14:22:30.791Z,13.30
2018-09-25T14:25:05.509Z,13.30
2018-09-25T14:27:40.426Z,13.30
2018-09-25T14:30:15.483Z,13.40
2018-09-25T14:32:50.382Z,13.30
2018-09-25T14:35:25.264Z,13.30
2018-09-25T14:38:00.184Z,13.30
2018-09-25T14:40:35.144Z,13.40
2018-09-25T14:43:10.022Z,13.40
2018-09-25T14:45:45.057Z,13.40
2018-09-25T14:48:19.971Z,13.40
2018-09-25T14:50:54.980Z,13.40
2018-09-25T14:53:29.975Z,13.30
2018-09-25T14:56:04.633Z,13.30
2018-09-25T14:58:41.664Z,13.30
2018-09-25T15:01:17.451Z,13.30
2018-09-25T15:03:52.251Z,13.20
2018-09-25T15:06:27.142Z,13.20
2018-09-25T15:09:03.484Z,13.20
2018-09-25T15:11:38.366Z,13.20
2018-09-25T15:14:14.130Z,13.20
2018-09-25T15:16:48.986Z,13.30
2018-09-25T15:19:25.104Z,13.40
2018-09-25T15:22:00.014Z,13.30
2018-09-25T15:24:34.734Z,13.30
2018-09-25T15:27:09.570Z,13.30
2018-09-25T15:29:44.367Z,13.30
2018-09-25T15:32:19.429Z,13.30
2018-09-25T15:34:54.202Z,13.30
2018-09-25T15:37:28.988Z,13.20
2018-09-25T15:40:03.744Z,13.30
2018-09-25T15:42:38.631Z,13.20
2018-09-25T15:45:13.385Z,13.20
2018-09-25T15:47:48.201Z,13.20
2018-09-25T15:50:23.119Z,13.10
2018-09-25T15:52:58.116Z,13.10
2018-09-25T15:55:33.185Z,13.10
2018-09-25T15:58:08.130Z,13.10
2018-09-25T16:00:43.995Z,13.00
2018-09-25T16:03:18.783Z,13.00
2018-09-25T16:05:53.616Z,13.00
2018-09-25T16:08:28.417Z,12.90
2018-09-25T16:11:03.270Z,13.00
2018-09-25T16:13:38.305Z,12.90
2018-09-25T16:16:13.138Z,12.90
2018-09-25T16:18:48.121Z,12.90
2018-09-25T16:21:22.936Z,12.90
2018-09-25T16:23:57.763Z,12.80
2018-09-25T16:26:32.725Z,12.80
2018-09-25T16:29:07.752Z,12.70
2018-09-25T16:31:42.542Z,12.70
2018-09-25T16:34:17.327Z,12.70
2018-09-25T16:36:53.408Z,12.70
2018-09-25T16:39:28.250Z,12.70
2018-09-25T16:42:03.029Z,12.60
2018-09-25T16:44:37.885Z,12.60
2018-09-25T16:47:12.626Z,12.60
2018-09-25T16:49:47.231Z,12.60
2018-09-25T16:52:22.163Z,12.60
2018-09-25T16:54:56.928Z,12.60
2018-09-25T16:57:32.181Z,12.60
2018-09-25T17:00:07.048Z,12.60
2018-09-25T17:02:41.807Z,12.50
2018-09-25T17:05:16.797Z,12.50
2018-09-25T17:07:51.616Z,12.50
2018-09-25T17:10:26.595Z,12.50
2018-09-25T17:13:01.410Z,12.40
2018-09-25T17:15:36.586Z,12.40
2018-09-25T17:18:11.749Z,12.30
2018-09-25T17:20:46.499Z,12.30
2018-09-25T17:23:21.366Z,12.30
2018-09-25T17:25:56.283Z,12.30
2018-09-25T17:28:31.153Z,12.30
2018-09-25T17:31:05.889Z,12.30
2018-09-25T17:33:40.700Z,12.20
2018-09-25T17:36:15.530Z,12.30
2018-09-25T17:38:52.039Z,12.20
2018-09-25T17:41:27.167Z,12.20
2018-09-25T17:44:02.034Z,12.20
2018-09-25T17:46:37.022Z,12.10
2018-09-25T17:49:13.345Z,12.20
2018-09-25T17:51:48.272Z,12.10
2018-09-25T17:54:23.083Z,12.00
2018-09-25T17:57:00.148Z,12.00
2018-09-25T17:59:35.167Z,11.90
2018-09-25T18:02:10.152Z,12.00
2018-09-25T18:04:44.948Z,12.00
2018-09-25T18:07:19.699Z,12.00
2018-09-25T18:09:54.458Z,12.00
2018-09-25T18:12:29.355Z,11.90
2018-09-25T18:15:04.127Z,11.90
2018-09-25T18:17:38.896Z,11.80
2018-09-25T18:20:13.817Z,11.70
2018-09-25T18:22:48.616Z,11.70
2018-09-25T18:25:23.206Z,11.70
2018-09-25T18:27:58.096Z,11.70
2018-09-25T18:30:33.046Z,11.70
2018-09-25T18:33:08.050Z,11.70
2018-09-25T18:35:42.895Z,11.60
2018-09-25T18:38:17.691Z,11.60
2018-09-25T18:40:52.490Z,11.60
2018-09-25T18:43:27.516Z,11.50
2018-09-25T18:46:02.331Z,11.60
2018-09-25T18:48:37.063Z,11.60
2018-09-25T18:51:11.935Z,11.60
2018-09-25T18:53:46.910Z,11.60
2018-09-25T18:56:21.810Z,11.60
2018-09-25T18:58:56.540Z,11.60
2018-09-25T19:01:31.323Z,11.50
2018-09-25T19:04:06.383Z,11.50
2018-09-25T19:06:41.193Z,11.40
2018-09-25T19:09:16.144Z,11.40
2018-09-25T19:11:51.075Z,11.50
2018-09-25T19:14:25.690Z,11.40
2018-09-25T19:17:00.571Z,11.40
2018-09-25T19:19:35.339Z,11.30
2018-09-25T19:22:10.403Z,11.30
2018-09-25T19:24:45.132Z,11.30
2018-09-25T19:27:19.974Z,11.30
2018-09-25T19:29:54.867Z,11.30
2018-09-25T19:32:29.719Z,11.30
2018-09-25T19:35:04.510Z,11.30
2018-09-25T19:37:39.373Z,11.30
2018-09-25T19:40:14.358Z,11.30
2018-09-25T19:42:49.201Z,11.20
2018-09-25T19:45:24.039Z,11.20
2018-09-25T19:47:58.935Z,11.20
2018-09-25T19:50:34.078Z,11.10
2018-09-25T19:53:08.822Z,11.00
2018-09-25T19:55:43.782Z,11.00
2018-09-25T19:58:18.673Z,10.90
2018-09-25T20:00:54.322Z,11.00
2018-09-25T20:03:29.303Z,11.00
2018-09-25T20:06:04.242Z,10.90
2018-09-25T20:08:39.027Z,11.00
2018-09-25T20:11:13.797Z,11.00
2018-09-25T20:13:48.884Z,10.90
2018-09-25T20:16:23.915Z,10.90
2018-09-25T20:18:58.584Z,10.80
2018-09-25T20:21:33.431Z,10.70
2018-09-25T20:24:08.212Z,10.60
2018-09-25T20:26:43.036Z,10.60
2018-09-25T20:29:17.938Z,10.60
2018-09-25T20:31:52.908Z,10.60
2018-09-25T20:34:27.705Z,10.50
2018-09-25T20:37:02.608Z,10.50
2018-09-25T20:39:37.279Z,10.50
2018-09-25T20:42:12.342Z,10.60
2018-09-25T20:44:47.167Z,10.50
2018-09-25T20:47:21.978Z,10.40
2018-09-25T20:49:56.766Z,10.40
2018-09-25T20:52:31.475Z,10.50
2018-09-25T20:55:06.483Z,10.50
2018-09-25T20:57:41.443Z,10.50
2018-09-25T21:00:16.371Z,10.60
2018-09-25T21:02:51.916Z,10.50
2018-09-25T21:05:26.715Z,10.50
2018-09-25T21:08:01.387Z,10.40
2018-09-25T21:10:37.354Z,10.30
2018-09-25T21:13:12.391Z,10.40
2018-09-25T21:15:47.225Z,10.30
2018-09-25T21:18:22.141Z,10.20
2018-09-25T21:20:57.020Z,10.20
2018-09-25T21:23:31.991Z,10.10
2018-09-25T21:26:06.817Z,10.00
2018-09-25T21:28:41.643Z,10.00
2018-09-25T21:31:16.366Z,9.90
2018-09-25T21:33:51.191Z,9.90
2018-09-25T21:36:26.018Z,9.90
2018-09-25T21:39:01.348Z,9.90
2018-09-25T21:41:36.308Z,9.80
2018-09-25T21:44:11.203Z,9.90
2018-09-25T21:46:46.131Z,9.90
2018-09-25T21:49:20.959Z,9.80
2018-09-25T21:51:55.731Z,9.80
2018-09-25T21:54:30.553Z,9.70
2018-09-25T21:57:05.603Z,9.70
2018-09-25T21:59:40.385Z,9.70
2018-09-25T22:02:15.420Z,9.70
2018-09-25T22:04:50.184Z,9.70
2018-09-25T22:07:25.048Z,9.50
2018-09-25T22:09:59.935Z,9.40
2018-09-25T22:12:35.609Z,9.40
2018-09-25T22:15:10.432Z,9.40
2018-09-25T22:17:45.192Z,9.40
2018-09-25T22:20:20.106Z,9.40
2018-09-25T22:22:55.814Z,9.30
2018-09-25T22:25:30.612Z,9.30
2018-09-25T22:28:05.523Z,9.30
2018-09-25T22:30:40.453Z,9.20
2018-09-25T22:33:15.385Z,9.20
2018-09-25T22:35:50.242Z,9.20
2018-09-25T22:38:25.002Z,9.30
2018-09-25T22:40:59.770Z,9.30
2018-09-25T22:43:34.571Z,9.20
2018-09-25T22:46:09.395Z,9.20
2018-09-25T22:48:44.151Z,9.30
2018-09-25T22:51:19.052Z,9.20
2018-09-25T22:53:53.913Z,9.10
2018-09-25T22:56:28.765Z,9.10
2018-09-25T22:59:03.571Z,9.00
2018-09-25T23:01:38.599Z,9.10
2018-09-25T23:04:13.587Z,9.00
2018-09-25T23:06:48.427Z,9.10
2018-09-25T23:09:23.542Z,9.00
2018-09-25T23:11:58.602Z,8.90
2018-09-25T23:14:34.089Z,8.90
2018-09-25T23:17:08.891Z,9.00
2018-09-25T23:19:43.790Z,8.90
2018-09-25T23:22:18.720Z,8.90
2018-09-25T23:24:53.727Z,8.80
2018-09-25T23:27:28.499Z,8.80
2018-09-25T23:30:03.419Z,8.80
2018-09-25T23:32:38.290Z,8.80
2018-09-25T23:35:13.170Z,9.00
2018-09-25T23:37:47.753Z,9.00
2018-09-25T23:40:42.530Z,9.10
2018-09-25T23:43:17.502Z,9.20
2018-09-25T23:45:51.512Z,9.10
2018-09-25T23:48:25.851Z,9.00
2018-09-25T23:53:07.471Z,9.00
2018-09-25T23:56:43.176Z,8.90
2018-09-25T23:59:19.320Z,8.80
